createdAt,value
2022-11-26T00:02:44.222Z,76.89
2022-11-26T00:05:57.607Z,75.23
2022-11-26T00:09:06.406Z,69.34
2022-11-26T00:12:20.274Z,65.90
2022-11-26T00:15:30.580Z,60.97
2022-11-26T00:18:36.508Z,60.41
2022-11-26T00:21:46.400Z,62.09
2022-11-26T00:24:53.476Z,64.15
2022-11-26T00:28:02.616Z,60.54
2022-11-26T00:31:17.640Z,58.17
2022-11-26T00:34:24.419Z,59.81
2022-11-26T00:37:46.202Z,61.41
2022-11-26T00:40:53.105Z,64.69
2022-11-26T00:43:59.058Z,61.63
2022-11-26T00:47:06.111Z,58.01
2022-11-26T00:50:18.706Z,55.73
2022-11-26T00:53:30.318Z,55.04
2022-11-26T00:56:38.247Z,57.20
2022-11-26T00:59:45.212Z,56.03
2022-11-26T01:02:52.185Z,53.47
2022-11-26T01:06:02.654Z,53.80
2022-11-26T01:09:22.238Z,53.96
2022-11-26T01:12:29.009Z,55.84
2022-11-26T01:15:34.877Z,58.75
2022-11-26T01:18:41.796Z,60.50
2022-11-26T01:21:47.852Z,60.02
2022-11-26T01:24:57.376Z,57.21
2022-11-26T01:28:03.487Z,58.77
2022-11-26T01:31:18.582Z,59.53
2022-11-26T01:34:24.529Z,59.57
2022-11-26T01:37:31.374Z,60.69
2022-11-26T01:41:05.471Z,62.08
2022-11-26T01:44:22.156Z,62.86
2022-11-26T01:47:31.731Z,61.39
2022-11-26T01:51:00.672Z,60.04
2022-11-26T01:54:07.031Z,56.53
2022-11-26T01:57:23.938Z,55.77
2022-11-26T02:00:29.972Z,54.54
2022-11-26T02:03:47.049Z,54.67
2022-11-26T02:06:55.239Z,53.13
2022-11-26T02:10:02.135Z,52.73
2022-11-26T02:13:10.971Z,51.81
2022-11-26T02:16:37.200Z,50.58
2022-11-26T02:20:28.203Z,50.52
2022-11-26T02:24:12.745Z,50.86
2022-11-26T02:28:11.870Z,50.31
2022-11-26T02:31:32.720Z,48.97
2022-11-26T02:34:51.659Z,49.25
2022-11-26T02:38:05.918Z,49.65
2022-11-26T02:41:12.799Z,48.66
2022-11-26T02:44:24.194Z,50.75
2022-11-26T02:47:37.668Z,50.97
2022-11-26T02:50:51.614Z,52.68
2022-11-26T02:54:00.060Z,53.16
2022-11-26T02:57:14.947Z,53.41
2022-11-26T03:00:23.504Z,53.98
2022-11-26T03:03:41.443Z,53.91
2022-11-26T03:06:50.965Z,53.11
2022-11-26T03:10:00.953Z,52.33
2022-11-26T03:13:07.751Z,49.57
2022-11-26T03:16:13.694Z,48.56
2022-11-26T03:19:23.108Z,48.64
2022-11-26T03:22:29.677Z,48.67
2022-11-26T03:25:37.014Z,47.94
2022-11-26T03:28:43.068Z,48.83
2022-11-26T03:31:49.947Z,50.31
2022-11-26T03:34:58.574Z,50.47
2022-11-26T03:38:05.347Z,50.17
2022-11-26T03:41:11.277Z,49.64
2022-11-26T03:44:18.459Z,49.94
2022-11-26T03:47:24.794Z,51.15
2022-11-26T03:50:34.155Z,49.95
2022-11-26T03:53:40.035Z,50.07
2022-11-26T03:56:46.783Z,61.60
2022-11-26T03:59:52.820Z,59.60
2022-11-26T04:02:59.683Z,50.10
2022-11-26T04:06:09.735Z,49.02
2022-11-26T04:09:16.691Z,49.00
2022-11-26T04:12:22.736Z,49.07
2022-11-26T04:15:29.483Z,51.11
2022-11-26T04:18:36.025Z,48.99
2022-11-26T04:21:45.635Z,46.97
2022-11-26T04:24:51.764Z,46.81
2022-11-26T04:27:59.146Z,46.81
2022-11-26T04:31:05.141Z,44.19
2022-11-26T04:34:11.916Z,44.06
2022-11-26T04:37:20.525Z,45.33
2022-11-26T04:40:27.250Z,48.06
2022-11-26T04:43:33.372Z,46.47
2022-11-26T04:46:40.194Z,47.54
2022-11-26T04:49:46.181Z,45.44
2022-11-26T04:52:55.782Z,48.44
2022-11-26T04:56:01.781Z,48.85
2022-11-26T04:59:08.502Z,46.60
2022-11-26T05:02:14.867Z,47.12
2022-11-26T05:05:21.979Z,47.43
2022-11-26T05:08:30.537Z,47.62
2022-11-26T05:11:37.291Z,47.55
2022-11-26T05:14:43.257Z,47.94
2022-11-26T05:17:49.969Z,49.13
2022-11-26T05:20:55.912Z,49.55
2022-11-26T05:24:05.469Z,49.56
2022-11-26T05:27:12.435Z,48.94
2022-11-26T05:30:19.781Z,48.91
2022-11-26T05:33:25.685Z,48.90
2022-11-26T05:36:32.371Z,50.79
2022-11-26T05:39:41.079Z,51.71
2022-11-26T05:42:48.214Z,52.02
2022-11-26T05:45:54.193Z,52.80
2022-11-26T05:49:01.142Z,52.72
2022-11-26T05:52:07.318Z,55.29
2022-11-26T05:55:16.731Z,59.86
2022-11-26T05:58:22.944Z,53.90
2022-11-26T06:01:29.751Z,50.48
2022-11-26T06:04:36.726Z,50.77
2022-11-26T06:07:45.092Z,48.93
2022-11-26T06:10:53.916Z,49.70
2022-11-26T06:14:00.639Z,54.95
2022-11-26T06:17:06.615Z,79.45
2022-11-26T06:20:15.609Z,67.92
2022-11-26T06:23:21.604Z,57.72
2022-11-26T06:26:31.173Z,51.21
2022-11-26T06:29:37.405Z,46.46
2022-11-26T06:32:44.217Z,44.36
2022-11-26T06:35:50.129Z,48.24
2022-11-26T06:38:56.778Z,49.93
2022-11-26T06:42:05.319Z,44.68
2022-11-26T06:45:14.211Z,49.18
2022-11-26T06:48:20.131Z,49.72
2022-11-26T06:51:27.974Z,41.54
2022-11-26T06:54:34.124Z,36.60
2022-11-26T06:57:43.450Z,35.61
2022-11-26T07:00:49.397Z,35.60
2022-11-26T07:03:56.855Z,33.53
2022-11-26T07:07:02.825Z,33.94
2022-11-26T07:10:11.395Z,32.64
2022-11-26T07:13:20.014Z,30.96
2022-11-26T07:16:28.146Z,30.42
2022-11-26T07:19:34.217Z,29.81
2022-11-26T07:22:41.247Z,30.00
2022-11-26T07:25:47.347Z,30.47
2022-11-26T07:28:56.982Z,30.10
2022-11-26T07:32:03.015Z,29.87
2022-11-26T07:35:11.313Z,30.29
2022-11-26T07:38:17.418Z,29.94
2022-11-26T07:41:25.672Z,27.81
2022-11-26T07:44:34.551Z,27.74
2022-11-26T07:47:41.523Z,27.53
2022-11-26T07:50:48.148Z,28.31
2022-11-26T07:53:56.573Z,28.21
2022-11-26T07:57:02.521Z,28.11
2022-11-26T08:00:14.096Z,28.80
2022-11-26T08:03:20.041Z,31.16
2022-11-26T08:06:30.484Z,32.76
2022-11-26T08:09:36.667Z,39.77
2022-11-26T08:12:43.795Z,46.23
2022-11-26T08:15:54.223Z,44.54
2022-11-26T08:19:04.077Z,49.11
2022-11-26T08:22:10.095Z,53.55
2022-11-26T08:25:16.925Z,55.54
2022-11-26T08:28:23.197Z,58.06
2022-11-26T08:31:35.165Z,53.19
2022-11-26T08:34:42.300Z,50.62
2022-11-26T08:37:49.100Z,52.13
2022-11-26T08:40:55.280Z,55.11
2022-11-26T08:44:06.517Z,57.58
2022-11-26T08:47:16.787Z,66.73
2022-11-26T08:50:23.635Z,69.53
2022-11-26T08:53:32.427Z,62.67
2022-11-26T08:56:40.236Z,60.18
2022-11-26T08:59:46.111Z,59.54
2022-11-26T09:02:55.511Z,61.28
2022-11-26T09:06:04.577Z,61.29
2022-11-26T09:09:15.857Z,62.06
2022-11-26T09:12:22.092Z,64.53
2022-11-26T09:15:29.078Z,64.59
2022-11-26T09:18:37.592Z,69.55
2022-11-26T09:21:44.442Z,63.96
2022-11-26T09:24:50.459Z,64.72
2022-11-26T09:27:57.257Z,57.45
2022-11-26T09:31:04.880Z,57.41
2022-11-26T09:34:15.435Z,51.25
2022-11-26T09:37:21.298Z,47.14
2022-11-26T09:40:50.649Z,44.81
2022-11-26T09:44:22.460Z,44.49
2022-11-26T09:47:38.866Z,46.72
2022-11-26T09:50:54.005Z,45.08
2022-11-26T09:54:04.701Z,48.52
2022-11-26T09:57:30.563Z,52.33
2022-11-26T10:00:44.174Z,54.89
2022-11-26T10:03:50.474Z,74.60
2022-11-26T10:07:17.517Z,69.88
2022-11-26T10:10:35.408Z,58.00
2022-11-26T10:13:57.399Z,64.07
2022-11-26T10:17:29.197Z,77.41
2022-11-26T10:21:18.210Z,80.76
2022-11-26T10:24:39.518Z,71.34
2022-11-26T10:27:47.206Z,72.71
2022-11-26T10:31:02.727Z,60.29
2022-11-26T10:34:20.260Z,54.34
2022-11-26T10:37:29.268Z,48.91
2022-11-26T10:40:39.421Z,52.44
2022-11-26T10:43:45.486Z,49.72
2022-11-26T10:46:52.243Z,56.91
2022-11-26T10:53:58.697Z,45.59
2022-11-26T10:57:21.981Z,40.85
2022-11-26T11:00:42.169Z,37.96
2022-11-26T11:04:10.772Z,36.79
2022-11-26T11:07:44.312Z,40.60
2022-11-26T11:10:59.620Z,36.62
2022-11-26T11:14:09.051Z,35.09
2022-11-26T11:17:36.464Z,33.41
2022-11-26T11:20:55.006Z,35.33
2022-11-26T11:24:12.363Z,35.11
2022-11-26T11:27:30.982Z,32.71
2022-11-26T11:30:43.624Z,32.49
2022-11-26T11:33:52.155Z,31.80
2022-11-26T11:37:11.728Z,31.31
2022-11-26T11:40:27.756Z,32.57
2022-11-26T11:43:40.040Z,35.59
2022-11-26T11:47:24.484Z,31.45
2022-11-26T11:50:39.323Z,32.26
2022-11-26T11:54:07.713Z,33.90
2022-11-26T11:57:38.355Z,34.39
2022-11-26T12:00:58.472Z,35.86
2022-11-26T12:04:46.341Z,36.19
2022-11-26T12:08:10.948Z,39.37
2022-11-26T12:11:41.163Z,45.94
2022-11-26T12:14:55.453Z,45.41
2022-11-26T12:18:16.419Z,46.82
2022-11-26T12:21:42.506Z,63.29
2022-11-26T12:24:58.035Z,64.85
2022-11-26T12:28:18.180Z,57.87
2022-11-26T12:31:35.864Z,58.51
2022-11-26T12:34:52.947Z,68.50
2022-11-26T12:38:10.874Z,64.22
2022-11-26T12:41:27.500Z,57.82
2022-11-26T12:44:43.091Z,51.98
2022-11-26T12:48:01.058Z,46.35
2022-11-26T12:51:27.467Z,53.15
2022-11-26T12:54:56.929Z,56.08
2022-11-26T12:58:17.091Z,58.64
2022-11-26T13:01:24.648Z,52.79
2022-11-26T13:04:39.435Z,49.42
2022-11-26T13:08:15.388Z,48.15
2022-11-26T13:11:43.851Z,44.22
2022-11-26T13:15:04.108Z,36.23
2022-11-26T13:18:32.606Z,36.20
2022-11-26T13:22:04.140Z,32.90
2022-11-26T13:25:47.592Z,34.05
2022-11-26T13:29:33.028Z,31.16
2022-11-26T13:33:32.400Z,29.47
2022-11-26T13:37:09.550Z,30.22
2022-11-26T13:40:57.375Z,34.99
2022-11-26T13:44:42.415Z,38.83
2022-11-26T13:47:58.154Z,39.01
2022-11-26T13:51:18.980Z,32.93
2022-11-26T13:54:33.871Z,31.66
2022-11-26T13:57:49.355Z,31.24
2022-11-26T14:00:58.080Z,31.89
2022-11-26T14:04:08.084Z,31.25
2022-11-26T14:07:24.134Z,30.09
2022-11-26T14:10:46.472Z,31.57
2022-11-26T14:14:37.663Z,34.17
2022-11-26T14:18:00.339Z,38.67
2022-11-26T14:21:16.821Z,35.96
2022-11-26T14:25:02.802Z,33.39
2022-11-26T14:28:13.406Z,32.26
2022-11-26T14:31:27.926Z,31.23
2022-11-26T14:34:44.401Z,34.52
2022-11-26T14:37:57.024Z,32.56
2022-11-26T14:41:05.622Z,32.67
2022-11-26T14:44:17.589Z,31.46
2022-11-26T14:47:25.771Z,31.63
2022-11-26T14:50:39.013Z,32.37
2022-11-26T14:53:51.757Z,32.82
2022-11-26T14:57:10.518Z,32.46
2022-11-26T15:00:27.997Z,31.34
2022-11-26T15:03:35.378Z,32.02
2022-11-26T15:06:46.336Z,33.87
2022-11-26T15:10:05.592Z,58.71
2022-11-26T15:13:26.237Z,54.30
2022-11-26T15:16:41.680Z,59.52
2022-11-26T15:19:52.023Z,66.00
2022-11-26T15:23:03.149Z,66.71
2022-11-26T15:26:09.949Z,58.75
2022-11-26T15:29:41.417Z,54.41
2022-11-26T15:32:47.520Z,53.61
2022-11-26T15:35:57.520Z,52.86
2022-11-26T15:39:08.217Z,61.60
2022-11-26T15:42:32.595Z,92.37
2022-11-26T15:45:44.568Z,86.34
2022-11-26T15:48:57.222Z,78.00
2022-11-26T15:52:09.275Z,72.63
2022-11-26T15:55:33.257Z,77.85
2022-11-26T15:58:44.521Z,87.14
2022-11-26T16:01:54.071Z,72.78
2022-11-26T16:05:02.342Z,57.69
2022-11-26T16:08:30.495Z,51.74
2022-11-26T16:11:39.401Z,49.13
2022-11-26T16:14:46.592Z,46.58
2022-11-26T16:17:56.745Z,44.47
2022-11-26T16:21:11.783Z,45.90
2022-11-26T16:24:33.751Z,34.74
2022-11-26T16:27:40.807Z,34.53
2022-11-26T16:30:48.542Z,41.98
2022-11-26T16:33:58.917Z,43.06
2022-11-26T16:37:19.205Z,44.85
2022-11-26T16:40:27.471Z,38.70
2022-11-26T16:43:33.826Z,34.77
2022-11-26T16:46:42.480Z,32.46
2022-11-26T16:49:51.891Z,31.45
2022-11-26T16:52:59.244Z,31.21
2022-11-26T16:56:05.369Z,31.01
2022-11-26T16:59:28.821Z,34.65
2022-11-26T17:02:38.167Z,33.57
2022-11-26T17:05:47.800Z,33.21
2022-11-26T17:08:55.020Z,35.79
2022-11-26T17:12:01.900Z,47.61
2022-11-26T17:15:09.105Z,50.49
2022-11-26T17:18:22.416Z,47.48
2022-11-26T17:21:31.158Z,44.34
2022-11-26T17:24:38.354Z,48.82
2022-11-26T17:27:45.642Z,50.20
2022-11-26T17:30:53.732Z,45.53
2022-11-26T17:33:59.911Z,49.34
2022-11-26T17:37:16.879Z,52.36
2022-11-26T17:40:27.293Z,44.42
2022-11-26T17:43:34.527Z,43.20
2022-11-26T17:47:08.995Z,42.26
2022-11-26T17:50:09.973Z,43.23
2022-11-26T17:53:18.515Z,52.13
2022-11-26T17:56:27.587Z,49.60
2022-11-26T17:59:34.108Z,49.45
2022-11-26T18:02:41.156Z,46.07
2022-11-26T18:05:47.301Z,44.14
2022-11-26T18:08:56.733Z,44.39
2022-11-26T18:12:04.456Z,47.82
2022-11-26T18:15:12.446Z,58.32
2022-11-26T18:18:18.454Z,60.82
2022-11-26T18:21:25.207Z,58.05
2022-11-26T18:24:34.111Z,62.28
2022-11-26T18:27:40.924Z,60.25
2022-11-26T18:30:47.037Z,58.14
2022-11-26T18:33:54.470Z,60.31
2022-11-26T18:37:00.481Z,54.94
2022-11-26T18:40:14.144Z,59.70
2022-11-26T18:43:20.257Z,66.78
2022-11-26T18:46:27.307Z,61.90
2022-11-26T18:49:33.525Z,68.83
2022-11-26T18:52:43.225Z,76.83
2022-11-26T18:55:52.061Z,72.21
2022-11-26T18:58:59.615Z,74.42
2022-11-26T19:02:06.065Z,77.47
2022-11-26T19:05:13.053Z,82.24
2022-11-26T19:08:19.847Z,74.80
2022-11-26T19:11:30.050Z,69.93
2022-11-26T19:14:35.948Z,73.57
2022-11-26T19:17:42.764Z,67.04
2022-11-26T19:20:55.643Z,72.29
2022-11-26T19:24:06.517Z,60.64
2022-11-26T19:27:16.571Z,58.56
2022-11-26T19:30:23.800Z,58.53
2022-11-26T19:33:32.672Z,56.89
2022-11-26T19:36:41.050Z,57.55
2022-11-26T19:39:47.887Z,58.03
2022-11-26T19:42:57.378Z,57.81
2022-11-26T19:46:08.903Z,57.07
2022-11-26T19:49:17.596Z,57.80
2022-11-26T19:52:23.584Z,68.18
2022-11-26T19:55:30.396Z,81.21
2022-11-26T19:58:40.353Z,79.82
2022-11-26T20:01:47.284Z,86.12
2022-11-26T20:04:53.235Z,78.22
2022-11-26T20:08:00.161Z,77.28
2022-11-26T20:11:07.683Z,80.77
2022-11-26T20:14:18.319Z,89.17
2022-11-26T20:17:24.651Z,92.32
2022-11-26T20:20:31.374Z,86.49
2022-11-26T20:23:37.296Z,99.11
2022-11-26T20:26:48.819Z,84.77
2022-11-26T20:29:57.288Z,75.94
2022-11-26T20:33:04.039Z,80.72
2022-11-26T20:36:13.250Z,67.19
2022-11-26T20:39:22.501Z,57.91
2022-11-26T20:42:28.482Z,56.65
2022-11-26T20:45:38.856Z,60.18
2022-11-26T20:48:47.596Z,60.74
2022-11-26T20:51:54.350Z,118.50
2022-11-26T20:55:00.255Z,98.12
2022-11-26T20:58:07.031Z,90.65
2022-11-26T21:01:21.139Z,70.31
2022-11-26T21:04:27.905Z,77.84
2022-11-26T21:07:34.004Z,73.88
2022-11-26T21:10:42.880Z,67.80
2022-11-26T21:13:49.034Z,69.57
2022-11-26T21:16:58.426Z,65.09
2022-11-26T21:20:04.519Z,65.14
2022-11-26T21:23:13.191Z,69.91
2022-11-26T21:26:22.157Z,65.96
2022-11-26T21:29:28.996Z,59.67
2022-11-26T21:32:37.679Z,57.32
2022-11-26T21:35:44.598Z,58.91
2022-11-26T21:38:52.614Z,56.90
2022-11-26T21:41:59.323Z,61.29
2022-11-26T21:45:05.466Z,58.34
2022-11-26T21:48:14.900Z,59.45
2022-11-26T21:51:22.892Z,59.17
2022-11-26T21:54:30.683Z,60.47
2022-11-26T21:57:38.701Z,56.34
2022-11-26T22:00:47.046Z,90.29
2022-11-26T22:03:59.235Z,59.92
2022-11-26T22:07:06.795Z,45.01
2022-11-26T22:10:14.568Z,44.41
2022-11-26T22:13:21.337Z,47.38
2022-11-26T22:16:30.686Z,60.20
2022-11-26T22:19:40.135Z,43.61
2022-11-26T22:22:46.263Z,43.37
2022-11-26T22:25:53.452Z,44.94
2022-11-26T22:29:00.109Z,69.17
2022-11-26T22:32:07.433Z,48.03
2022-11-26T22:35:16.157Z,73.95
2022-11-26T22:38:22.871Z,45.96
2022-11-26T22:41:29.511Z,38.19
2022-11-26T22:44:36.967Z,38.96
2022-11-26T22:47:42.873Z,39.08
2022-11-26T22:50:57.171Z,39.34
2022-11-26T22:54:05.227Z,39.20
2022-11-26T22:57:12.008Z,40.18
2022-11-26T23:00:51.818Z,40.06
2022-11-26T23:04:00.895Z,42.96
2022-11-26T23:07:09.852Z,42.28
2022-11-26T23:10:16.698Z,42.62
2022-11-26T23:13:22.766Z,39.80
2022-11-26T23:16:31.094Z,40.09
2022-11-26T23:19:37.233Z,44.64
2022-11-26T23:22:46.595Z,44.83
2022-11-26T23:25:52.546Z,158.95
2022-11-26T23:29:02.006Z,267.33
2022-11-26T23:32:08.137Z,43.22
2022-11-26T23:35:15.264Z,42.17
2022-11-26T23:38:24.048Z,43.24
2022-11-26T23:41:31.676Z,43.35
2022-11-26T23:44:37.576Z,43.50
2022-11-26T23:47:44.204Z,43.48
2022-11-26T23:50:50.062Z,41.79
2022-11-26T23:54:00.145Z,39.58
2022-11-26T23:57:09.249Z,40.99
